sensor_id;sensor_type;location;lat;lon;timestamp;pressure;altitude;pressure_sealevel;temperature;humidity
52511;BME280;63918;51.700;17.998;2022-11-20T00:01:19;99651.05;;;-3.98;92.89
52511;BME280;63918;51.700;17.998;2022-11-20T00:03:46;99647.48;;;-3.90;91.68
52511;BME280;63918;51.700;17.998;2022-11-20T00:06:15;99644.70;;;-3.89;91.72
52511;BME280;63918;51.700;17.998;2022-11-20T00:08:41;99646.27;;;-3.92;91.83
52511;BME280;63918;51.700;17.998;2022-11-20T00:11:14;99648.75;;;-3.94;91.98
52511;BME280;63918;51.700;17.998;2022-11-20T00:13:40;99651.83;;;-3.96;92.46
52511;BME280;63918;51.700;17.998;2022-11-20T00:16:09;99648.69;;;-4.00;92.72
52511;BME280;63918;51.700;17.998;2022-11-20T00:18:36;99645.09;;;-4.00;92.88
52511;BME280;63918;51.700;17.998;2022-11-20T00:21:18;99643.02;;;-4.02;92.97
52511;BME280;63918;51.700;17.998;2022-11-20T00:23:45;99643.77;;;-4.01;92.52
52511;BME280;63918;51.700;17.998;2022-11-20T00:26:15;99642.55;;;-4.07;93.07
52511;BME280;63918;51.700;17.998;2022-11-20T00:28:43;99643.15;;;-4.19;93.48
52511;BME280;63918;51.700;17.998;2022-11-20T00:31:14;99641.53;;;-4.25;94.04
52511;BME280;63918;51.700;17.998;2022-11-20T00:33:42;99639.06;;;-4.31;94.49
52511;BME280;63918;51.700;17.998;2022-11-20T00:36:13;99641.00;;;-4.36;95.23
52511;BME280;63918;51.700;17.998;2022-11-20T00:38:40;99639.00;;;-4.35;95.84
52511;BME280;63918;51.700;17.998;2022-11-20T00:41:09;99638.69;;;-4.44;96.65
52511;BME280;63918;51.700;17.998;2022-11-20T00:43:36;99637.20;;;-4.47;96.46
52511;BME280;63918;51.700;17.998;2022-11-20T00:46:09;99636.95;;;-4.55;96.84
52511;BME280;63918;51.700;17.998;2022-11-20T00:48:36;99640.19;;;-4.61;97.37
52511;BME280;63918;51.700;17.998;2022-11-20T00:51:02;99639.52;;;-4.64;97.67
52511;BME280;63918;51.700;17.998;2022-11-20T00:53:30;99637.70;;;-4.66;97.77
52511;BME280;63918;51.700;17.998;2022-11-20T00:58:24;99639.58;;;-4.87;99.47
52511;BME280;63918;51.700;17.998;2022-11-20T01:00:51;99641.83;;;-4.88;100.00
52511;BME280;63918;51.700;17.998;2022-11-20T01:03:18;99644.45;;;-4.89;100.00
52511;BME280;63918;51.700;17.998;2022-11-20T01:05:45;99643.34;;;-4.98;100.00
52511;BME280;63918;51.700;17.998;2022-11-20T01:08:11;99637.88;;;-5.04;100.00
52511;BME280;63918;51.700;17.998;2022-11-20T01:10:38;99637.85;;;-5.02;100.00
52511;BME280;63918;51.700;17.998;2022-11-20T01:13:04;99640.97;;;-5.04;100.00
52511;BME280;63918;51.700;17.998;2022-11-20T01:16:08;99642.35;;;-5.05;100.00
52511;BME280;63918;51.700;17.998;2022-11-20T01:18:36;99645.25;;;-5.10;100.00
52511;BME280;63918;51.700;17.998;2022-11-20T01:21:12;99642.64;;;-5.15;100.00
52511;BME280;63918;51.700;17.998;2022-11-20T01:23:40;99638.18;;;-5.20;100.00
52511;BME280;63918;51.700;17.998;2022-11-20T01:26:09;99640.23;;;-5.26;100.00
52511;BME280;63918;51.700;17.998;2022-11-20T01:28:36;99636.10;;;-5.39;100.00
52511;BME280;63918;51.700;17.998;2022-11-20T01:31:31;99640.93;;;-5.41;100.00
52511;BME280;63918;51.700;17.998;2022-11-20T01:34:01;99642.54;;;-5.43;100.00
52511;BME280;63918;51.700;17.998;2022-11-20T01:36:29;99645.70;;;-5.45;100.00
52511;BME280;63918;51.700;17.998;2022-11-20T01:38:59;99642.50;;;-5.47;100.00
52511;BME280;63918;51.700;17.998;2022-11-20T01:41:27;99642.54;;;-5.47;100.00
52511;BME280;63918;51.700;17.998;2022-11-20T01:44:16;99645.58;;;-5.44;100.00
52511;BME280;63918;51.700;17.998;2022-11-20T01:46:57;99644.98;;;-5.40;100.00
52511;BME280;63918;51.700;17.998;2022-11-20T01:52:05;99636.19;;;-5.44;100.00
52511;BME280;63918;51.700;17.998;2022-11-20T01:54:38;99647.18;;;-5.33;100.00
52511;BME280;63918;51.700;17.998;2022-11-20T01:57:09;99641.12;;;-5.51;100.00
52511;BME280;63918;51.700;17.998;2022-11-20T01:59:42;99636.54;;;-5.47;100.00
52511;BME280;63918;51.700;17.998;2022-11-20T02:02:11;99638.24;;;-5.55;100.00
52511;BME280;63918;51.700;17.998;2022-11-20T02:04:37;99634.20;;;-5.55;100.00
52511;BME280;63918;51.700;17.998;2022-11-20T02:07:05;99636.48;;;-5.55;100.00
52511;BME280;63918;51.700;17.998;2022-11-20T02:09:31;99637.71;;;-5.49;100.00
52511;BME280;63918;51.700;17.998;2022-11-20T02:11:58;99641.70;;;-5.50;100.00
52511;BME280;63918;51.700;17.998;2022-11-20T02:14:26;99642.10;;;-5.60;100.00
52511;BME280;63918;51.700;17.998;2022-11-20T02:16:53;99640.41;;;-5.58;100.00
52511;BME280;63918;51.700;17.998;2022-11-20T02:19:24;99643.09;;;-5.44;99.87
52511;BME280;63918;51.700;17.998;2022-11-20T02:22:00;99647.27;;;-5.51;100.00
52511;BME280;63918;51.700;17.998;2022-11-20T02:24:28;99643.14;;;-5.49;99.85
52511;BME280;63918;51.700;17.998;2022-11-20T02:27:08;99641.09;;;-5.51;99.64
52511;BME280;63918;51.700;17.998;2022-11-20T02:29:45;99642.55;;;-5.43;99.04
52511;BME280;63918;51.700;17.998;2022-11-20T02:32:20;99644.64;;;-5.34;98.07
52511;BME280;63918;51.700;17.998;2022-11-20T02:34:47;99646.79;;;-5.26;98.22
52511;BME280;63918;51.700;17.998;2022-11-20T02:37:14;99643.72;;;-5.17;98.03
52511;BME280;63918;51.700;17.998;2022-11-20T02:39:41;99642.56;;;-5.19;97.80
52511;BME280;63918;51.700;17.998;2022-11-20T02:42:08;99639.90;;;-5.27;99.03
52511;BME280;63918;51.700;17.998;2022-11-20T02:44:34;99637.11;;;-5.32;99.82
52511;BME280;63918;51.700;17.998;2022-11-20T02:47:00;99640.65;;;-5.40;99.71
52511;BME280;63918;51.700;17.998;2022-11-20T02:49:27;99642.03;;;-5.32;100.00
52511;BME280;63918;51.700;17.998;2022-11-20T02:51:53;99639.86;;;-5.23;100.00
52511;BME280;63918;51.700;17.998;2022-11-20T02:54:20;99637.83;;;-5.17;100.00
52511;BME280;63918;51.700;17.998;2022-11-20T02:56:46;99635.55;;;-5.17;100.00
52511;BME280;63918;51.700;17.998;2022-11-20T02:59:13;99637.58;;;-5.08;100.00
52511;BME280;63918;51.700;17.998;2022-11-20T03:01:39;99640.93;;;-5.05;100.00
52511;BME280;63918;51.700;17.998;2022-11-20T03:04:06;99639.71;;;-4.98;100.00
52511;BME280;63918;51.700;17.998;2022-11-20T03:06:32;99638.40;;;-4.80;100.00
52511;BME280;63918;51.700;17.998;2022-11-20T03:08:59;99642.14;;;-4.62;100.00
52511;BME280;63918;51.700;17.998;2022-11-20T03:11:25;99633.59;;;-4.58;100.00
52511;BME280;63918;51.700;17.998;2022-11-20T03:13:52;99632.19;;;-4.56;100.00
52511;BME280;63918;51.700;17.998;2022-11-20T03:16:20;99635.54;;;-4.51;100.00
52511;BME280;63918;51.700;17.998;2022-11-20T03:18:47;99633.05;;;-4.36;100.00
52511;BME280;63918;51.700;17.998;2022-11-20T03:21:14;99634.02;;;-4.36;100.00
52511;BME280;63918;51.700;17.998;2022-11-20T03:23:42;99630.27;;;-4.38;100.00
52511;BME280;63918;51.700;17.998;2022-11-20T03:28:41;99629.82;;;-4.38;100.00
52511;BME280;63918;51.700;17.998;2022-11-20T03:31:11;99626.84;;;-4.30;100.00
52511;BME280;63918;51.700;17.998;2022-11-20T03:33:39;99625.83;;;-4.16;99.99
52511;BME280;63918;51.700;17.998;2022-11-20T03:36:08;99624.16;;;-4.15;99.03
52511;BME280;63918;51.700;17.998;2022-11-20T03:38:36;99626.05;;;-4.22;98.35
52511;BME280;63918;51.700;17.998;2022-11-20T03:41:05;99625.86;;;-4.16;98.08
52511;BME280;63918;51.700;17.998;2022-11-20T03:43:32;99629.14;;;-4.12;98.05
52511;BME280;63918;51.700;17.998;2022-11-20T03:45:59;99626.35;;;-4.15;98.34
52511;BME280;63918;51.700;17.998;2022-11-20T03:48:26;99625.31;;;-4.21;98.84
52511;BME280;63918;51.700;17.998;2022-11-20T03:51:05;99631.81;;;-4.17;98.24
52511;BME280;63918;51.700;17.998;2022-11-20T03:53:32;99634.63;;;-4.15;97.83
52511;BME280;63918;51.700;17.998;2022-11-20T03:55:59;99642.23;;;-4.06;97.14
52511;BME280;63918;51.700;17.998;2022-11-20T03:58:25;99640.03;;;-3.97;96.49
52511;BME280;63918;51.700;17.998;2022-11-20T04:00:52;99642.02;;;-3.90;97.00
52511;BME280;63918;51.700;17.998;2022-11-20T04:03:19;99642.87;;;-3.94;97.04
52511;BME280;63918;51.700;17.998;2022-11-20T04:05:45;99644.88;;;-3.88;96.45
52511;BME280;63918;51.700;17.998;2022-11-20T04:08:11;99647.85;;;-3.79;95.25
52511;BME280;63918;51.700;17.998;2022-11-20T04:10:38;99649.73;;;-3.78;94.59
52511;BME280;63918;51.700;17.998;2022-11-20T04:13:04;99649.34;;;-3.85;95.04
52511;BME280;63918;51.700;17.998;2022-11-20T04:15:31;99650.13;;;-3.94;95.77
52511;BME280;63918;51.700;17.998;2022-11-20T04:17:58;99651.08;;;-3.89;95.05
52511;BME280;63918;51.700;17.998;2022-11-20T04:20:24;99653.05;;;-3.87;95.53
52511;BME280;63918;51.700;17.998;2022-11-20T04:22:53;99649.02;;;-3.82;95.15
52511;BME280;63918;51.700;17.998;2022-11-20T04:25:20;99648.13;;;-3.79;94.52
52511;BME280;63918;51.700;17.998;2022-11-20T04:27:46;99647.84;;;-3.80;94.63
52511;BME280;63918;51.700;17.998;2022-11-20T04:30:12;99643.80;;;-3.80;95.76
52511;BME280;63918;51.700;17.998;2022-11-20T04:32:39;99634.83;;;-3.77;95.10
52511;BME280;63918;51.700;17.998;2022-11-20T04:35:05;99638.47;;;-3.73;94.49
52511;BME280;63918;51.700;17.998;2022-11-20T04:37:32;99642.73;;;-3.70;94.64
52511;BME280;63918;51.700;17.998;2022-11-20T04:39:58;99637.20;;;-3.71;95.29
52511;BME280;63918;51.700;17.998;2022-11-20T04:42:25;99636.23;;;-3.70;94.65
52511;BME280;63918;51.700;17.998;2022-11-20T04:44:55;99636.51;;;-3.72;94.25
52511;BME280;63918;51.700;17.998;2022-11-20T04:47:21;99631.08;;;-3.69;93.61
52511;BME280;63918;51.700;17.998;2022-11-20T04:49:47;99632.27;;;-3.69;93.13
52511;BME280;63918;51.700;17.998;2022-11-20T04:52:14;99627.25;;;-3.68;92.98
52511;BME280;63918;51.700;17.998;2022-11-20T04:54:40;99627.10;;;-3.65;92.80
52511;BME280;63918;51.700;17.998;2022-11-20T04:57:07;99625.91;;;-3.61;92.73
52511;BME280;63918;51.700;17.998;2022-11-20T04:59:33;99624.04;;;-3.56;91.97
52511;BME280;63918;51.700;17.998;2022-11-20T05:02:00;99621.55;;;-3.60;93.02
52511;BME280;63918;51.700;17.998;2022-11-20T05:04:26;99617.16;;;-3.63;92.17
52511;BME280;63918;51.700;17.998;2022-11-20T05:06:52;99621.34;;;-3.60;92.38
52511;BME280;63918;51.700;17.998;2022-11-20T05:09:19;99616.60;;;-3.63;91.55
52511;BME280;63918;51.700;17.998;2022-11-20T05:11:45;99615.16;;;-3.65;92.10
52511;BME280;63918;51.700;17.998;2022-11-20T05:14:12;99613.61;;;-3.71;92.13
52511;BME280;63918;51.700;17.998;2022-11-20T05:16:38;99615.48;;;-3.77;91.88
52511;BME280;63918;51.700;17.998;2022-11-20T05:19:05;99613.43;;;-3.80;92.06
52511;BME280;63918;51.700;17.998;2022-11-20T05:21:31;99610.60;;;-3.89;92.40
52511;BME280;63918;51.700;17.998;2022-11-20T05:23:58;99611.36;;;-3.94;92.04
52511;BME280;63918;51.700;17.998;2022-11-20T05:26:25;99614.80;;;-3.96;92.53
52511;BME280;63918;51.700;17.998;2022-11-20T05:28:51;99615.33;;;-3.96;92.92
52511;BME280;63918;51.700;17.998;2022-11-20T05:31:20;99609.85;;;-3.97;93.31
52511;BME280;63918;51.700;17.998;2022-11-20T05:33:46;99606.83;;;-3.98;93.52
52511;BME280;63918;51.700;17.998;2022-11-20T05:36:14;99610.94;;;-3.98;93.30
52511;BME280;63918;51.700;17.998;2022-11-20T05:38:42;99609.15;;;-4.00;92.85
52511;BME280;63918;51.700;17.998;2022-11-20T05:41:17;99605.85;;;-3.97;92.84
52511;BME280;63918;51.700;17.998;2022-11-20T05:43:45;99608.86;;;-3.98;92.29
52511;BME280;63918;51.700;17.998;2022-11-20T05:46:14;99609.36;;;-3.93;92.25
52511;BME280;63918;51.700;17.998;2022-11-20T05:48:42;99609.41;;;-3.92;92.44
52511;BME280;63918;51.700;17.998;2022-11-20T05:51:11;99602.94;;;-3.89;91.87
52511;BME280;63918;51.700;17.998;2022-11-20T05:53:38;99602.04;;;-3.84;92.38
52511;BME280;63918;51.700;17.998;2022-11-20T05:56:06;99599.70;;;-3.87;92.28
52511;BME280;63918;51.700;17.998;2022-11-20T05:58:34;99592.57;;;-3.86;92.18
52511;BME280;63918;51.700;17.998;2022-11-20T06:01:42;99590.55;;;-3.87;92.16
52511;BME280;63918;51.700;17.998;2022-11-20T06:04:02;99591.48;;;-3.81;91.74
52511;BME280;63918;51.700;17.998;2022-11-20T06:06:28;99590.38;;;-3.80;90.64
52511;BME280;63918;51.700;17.998;2022-11-20T06:08:55;99593.44;;;-3.76;90.56
52511;BME280;63918;51.700;17.998;2022-11-20T06:11:21;99593.49;;;-3.67;90.70
52511;BME280;63918;51.700;17.998;2022-11-20T06:13:48;99597.09;;;-3.59;89.90
52511;BME280;63918;51.700;17.998;2022-11-20T06:16:17;99596.02;;;-3.57;89.55
52511;BME280;63918;51.700;17.998;2022-11-20T06:18:44;99585.79;;;-3.51;89.50
52511;BME280;63918;51.700;17.998;2022-11-20T06:21:13;99596.06;;;-3.63;91.05
52511;BME280;63918;51.700;17.998;2022-11-20T06:23:40;99602.48;;;-3.54;90.32
52511;BME280;63918;51.700;17.998;2022-11-20T06:26:09;99600.59;;;-3.61;90.54
52511;BME280;63918;51.700;17.998;2022-11-20T06:28:36;99597.70;;;-3.54;90.01
52511;BME280;63918;51.700;17.998;2022-11-20T06:31:04;99600.48;;;-3.55;89.88
52511;BME280;63918;51.700;17.998;2022-11-20T06:33:31;99603.96;;;-3.54;89.77
52511;BME280;63918;51.700;17.998;2022-11-20T06:35:59;99598.27;;;-3.44;88.84
52511;BME280;63918;51.700;17.998;2022-11-20T06:38:26;99601.23;;;-3.34;88.40
52511;BME280;63918;51.700;17.998;2022-11-20T06:40:53;99603.70;;;-3.21;87.99
52511;BME280;63918;51.700;17.998;2022-11-20T06:43:22;99605.62;;;-3.18;86.73
52511;BME280;63918;51.700;17.998;2022-11-20T06:45:55;99601.95;;;-3.21;86.70
52511;BME280;63918;51.700;17.998;2022-11-20T06:48:23;99599.10;;;-3.00;86.37
52511;BME280;63918;51.700;17.998;2022-11-20T06:50:50;99593.17;;;-2.98;85.85
52511;BME280;63918;51.700;17.998;2022-11-20T06:53:16;99596.88;;;-2.59;84.81
52511;BME280;63918;51.700;17.998;2022-11-20T06:55:45;99591.86;;;-2.21;82.81
52511;BME280;63918;51.700;17.998;2022-11-20T06:58:13;99589.48;;;-2.11;81.34
52511;BME280;63918;51.700;17.998;2022-11-20T07:00:40;99589.73;;;-1.66;79.76
52511;BME280;63918;51.700;17.998;2022-11-20T07:03:08;99579.83;;;-1.30;76.51
52511;BME280;63918;51.700;17.998;2022-11-20T07:05:36;99582.41;;;-1.62;79.17
52511;BME280;63918;51.700;17.998;2022-11-20T07:08:03;99581.14;;;-1.07;77.38
52511;BME280;63918;51.700;17.998;2022-11-20T07:10:31;99578.25;;;-1.02;76.82
52511;BME280;63918;51.700;17.998;2022-11-20T07:12:57;99587.05;;;-0.80;75.54
52511;BME280;63918;51.700;17.998;2022-11-20T07:15:25;99581.36;;;-0.50;74.24
52511;BME280;63918;51.700;17.998;2022-11-20T07:17:52;99584.80;;;-0.06;73.12
52511;BME280;63918;51.700;17.998;2022-11-20T07:20:18;99583.60;;;0.28;70.62
52511;BME280;63918;51.700;17.998;2022-11-20T07:22:45;99585.31;;;0.53;69.41
52511;BME280;63918;51.700;17.998;2022-11-20T07:25:11;99587.86;;;0.19;69.76
52511;BME280;63918;51.700;17.998;2022-11-20T07:27:37;99587.95;;;-0.04;70.74
52511;BME280;63918;51.700;17.998;2022-11-20T07:30:04;99581.77;;;0.79;68.79
52511;BME280;63918;51.700;17.998;2022-11-20T07:32:31;99580.73;;;2.30;64.54
52511;BME280;63918;51.700;17.998;2022-11-20T07:34:57;99579.33;;;1.60;63.86
52511;BME280;63918;51.700;17.998;2022-11-20T07:37:24;99573.52;;;1.92;64.87
52511;BME280;63918;51.700;17.998;2022-11-20T07:39:50;99571.60;;;2.77;60.61
52511;BME280;63918;51.700;17.998;2022-11-20T07:42:16;99570.92;;;1.28;63.53
52511;BME280;63918;51.700;17.998;2022-11-20T07:44:43;99559.48;;;0.06;68.20
52511;BME280;63918;51.700;17.998;2022-11-20T07:47:09;99572.39;;;0.58;67.31
52511;BME280;63918;51.700;17.998;2022-11-20T07:49:36;99569.66;;;0.11;68.78
52511;BME280;63918;51.700;17.998;2022-11-20T07:52:02;99564.91;;;0.53;67.53
52511;BME280;63918;51.700;17.998;2022-11-20T07:54:28;99565.69;;;0.29;67.50
52511;BME280;63918;51.700;17.998;2022-11-20T07:56:55;99564.87;;;0.80;66.93
52511;BME280;63918;51.700;17.998;2022-11-20T07:59:21;99565.59;;;0.79;66.40
52511;BME280;63918;51.700;17.998;2022-11-20T08:01:48;99561.15;;;1.19;64.60
52511;BME280;63918;51.700;17.998;2022-11-20T08:04:15;99559.11;;;1.25;65.44
52511;BME280;63918;51.700;17.998;2022-11-20T08:06:42;99557.92;;;1.14;65.64
52511;BME280;63918;51.700;17.998;2022-11-20T08:09:08;99555.07;;;1.00;64.67
52511;BME280;63918;51.700;17.998;2022-11-20T08:11:35;99548.49;;;0.62;66.67
52511;BME280;63918;51.700;17.998;2022-11-20T08:14:20;99543.30;;;0.22;67.12
52511;BME280;63918;51.700;17.998;2022-11-20T08:16:48;99547.86;;;0.13;68.10
52511;BME280;63918;51.700;17.998;2022-11-20T08:19:16;99541.83;;;0.55;66.52
52511;BME280;63918;51.700;17.998;2022-11-20T08:21:44;99543.63;;;1.02;64.74
52511;BME280;63918;51.700;17.998;2022-11-20T08:24:11;99531.27;;;1.45;63.68
52511;BME280;63918;51.700;17.998;2022-11-20T08:26:38;99538.80;;;2.17;61.62
52511;BME280;63918;51.700;17.998;2022-11-20T08:29:05;99541.75;;;2.00;61.77
52511;BME280;63918;51.700;17.998;2022-11-20T08:31:32;99541.07;;;1.72;61.22
52511;BME280;63918;51.700;17.998;2022-11-20T08:33:58;99542.64;;;1.85;62.10
52511;BME280;63918;51.700;17.998;2022-11-20T08:36:25;99539.51;;;1.37;62.61
52511;BME280;63918;51.700;17.998;2022-11-20T08:38:55;99539.55;;;2.17;61.59
52511;BME280;63918;51.700;17.998;2022-11-20T08:41:22;99537.67;;;2.17;61.29
52511;BME280;63918;51.700;17.998;2022-11-20T08:44:06;99535.66;;;2.32;59.57
52511;BME280;63918;51.700;17.998;2022-11-20T08:46:38;99533.44;;;1.92;60.38
52511;BME280;63918;51.700;17.998;2022-11-20T08:49:07;99532.46;;;2.23;59.89
52511;BME280;63918;51.700;17.998;2022-11-20T08:51:35;99531.52;;;2.14;59.74
52511;BME280;63918;51.700;17.998;2022-11-20T08:54:02;99528.98;;;2.98;57.65
52511;BME280;63918;51.700;17.998;2022-11-20T08:56:28;99525.67;;;2.66;57.56
52511;BME280;63918;51.700;17.998;2022-11-20T08:58:55;99529.77;;;2.96;56.92
52511;BME280;63918;51.700;17.998;2022-11-20T09:01:22;99526.42;;;2.99;56.52
52511;BME280;63918;51.700;17.998;2022-11-20T09:03:49;99525.57;;;2.77;56.96
52511;BME280;63918;51.700;17.998;2022-11-20T09:06:16;99523.15;;;2.67;57.20
52511;BME280;63918;51.700;17.998;2022-11-20T09:08:42;99525.88;;;2.56;57.36
52511;BME280;63918;51.700;17.998;2022-11-20T09:11:09;99521.70;;;2.80;56.84
52511;BME280;63918;51.700;17.998;2022-11-20T09:13:36;99522.58;;;2.48;57.41
52511;BME280;63918;51.700;17.998;2022-11-20T09:16:05;99514.77;;;3.07;56.79
52511;BME280;63918;51.700;17.998;2022-11-20T09:18:34;99514.96;;;3.48;54.17
52511;BME280;63918;51.700;17.998;2022-11-20T09:21:04;99494.73;;;2.88;55.76
52511;BME280;63918;51.700;17.998;2022-11-20T09:23:32;99501.57;;;3.08;55.81
52511;BME280;63918;51.700;17.998;2022-11-20T09:26:08;99500.35;;;3.71;55.34
52511;BME280;63918;51.700;17.998;2022-11-20T09:28:35;99505.82;;;3.26;54.80
52511;BME280;63918;51.700;17.998;2022-11-20T09:31:21;99507.75;;;4.08;53.90
52511;BME280;63918;51.700;17.998;2022-11-20T09:33:49;99500.80;;;3.31;54.83
52511;BME280;63918;51.700;17.998;2022-11-20T09:36:16;99498.26;;;3.45;55.21
52511;BME280;63918;51.700;17.998;2022-11-20T09:38:45;99499.73;;;3.23;55.35
52511;BME280;63918;51.700;17.998;2022-11-20T09:41:40;99495.38;;;3.53;55.09
52511;BME280;63918;51.700;17.998;2022-11-20T09:44:28;99491.41;;;3.87;53.23
52511;BME280;63918;51.700;17.998;2022-11-20T09:52:27;99491.04;;;3.12;54.36
52511;BME280;63918;51.700;17.998;2022-11-20T09:54:57;99491.55;;;4.05;53.70
52511;BME280;63918;51.700;17.998;2022-11-20T09:57:34;99493.52;;;4.03;53.19
52511;BME280;63918;51.700;17.998;2022-11-20T10:00:04;99490.65;;;3.62;54.55
52511;BME280;63918;51.700;17.998;2022-11-20T10:05:15;99481.70;;;3.87;53.60
52511;BME280;63918;51.700;17.998;2022-11-20T10:07:48;99485.18;;;3.64;53.84
52511;BME280;63918;51.700;17.998;2022-11-20T10:10:32;99483.72;;;3.87;53.25
52511;BME280;63918;51.700;17.998;2022-11-20T10:13:12;99481.90;;;3.82;52.85
52511;BME280;63918;51.700;17.998;2022-11-20T10:15:55;99476.23;;;4.02;52.85
52511;BME280;63918;51.700;17.998;2022-11-20T10:18:39;99476.45;;;3.75;52.82
52511;BME280;63918;51.700;17.998;2022-11-20T10:24:10;99476.65;;;5.40;50.21
52511;BME280;63918;51.700;17.998;2022-11-20T10:27:01;99475.34;;;4.36;51.10
52511;BME280;63918;51.700;17.998;2022-11-20T10:29:34;99478.30;;;4.56;50.61
52511;BME280;63918;51.700;17.998;2022-11-20T10:32:22;99477.38;;;5.22;50.46
52511;BME280;63918;51.700;17.998;2022-11-20T10:35:01;99483.52;;;4.95;49.66
52511;BME280;63918;51.700;17.998;2022-11-20T10:37:31;99478.77;;;5.42;49.39
52511;BME280;63918;51.700;17.998;2022-11-20T10:42:49;99467.74;;;4.26;49.79
52511;BME280;63918;51.700;17.998;2022-11-20T10:45:32;99464.44;;;5.19;48.88
52511;BME280;63918;51.700;17.998;2022-11-20T10:48:12;99459.27;;;4.98;48.58
52511;BME280;63918;51.700;17.998;2022-11-20T10:53:45;99456.44;;;6.47;45.83
52511;BME280;63918;51.700;17.998;2022-11-20T10:56:30;99452.19;;;5.83;47.04
52511;BME280;63918;51.700;17.998;2022-11-20T11:01:43;99446.98;;;3.38;52.97
52511;BME280;63918;51.700;17.998;2022-11-20T11:06:48;99441.33;;;2.94;55.42
52511;BME280;63918;51.700;17.998;2022-11-20T11:09:17;99441.98;;;3.48;54.32
52511;BME280;63918;51.700;17.998;2022-11-20T11:11:45;99436.31;;;4.31;51.37
52511;BME280;63918;51.700;17.998;2022-11-20T11:14:14;99438.77;;;5.56;49.47
52511;BME280;63918;51.700;17.998;2022-11-20T11:16:55;99436.44;;;4.29;51.55
52511;BME280;63918;51.700;17.998;2022-11-20T11:19:22;99439.27;;;4.06;51.55
52511;BME280;63918;51.700;17.998;2022-11-20T11:21:51;99428.17;;;4.00;51.69
52511;BME280;63918;51.700;17.998;2022-11-20T11:24:24;99437.10;;;4.07;52.61
52511;BME280;63918;51.700;17.998;2022-11-20T11:26:59;99434.92;;;4.34;51.58
52511;BME280;63918;51.700;17.998;2022-11-20T11:29:26;99423.76;;;4.30;52.17
52511;BME280;63918;51.700;17.998;2022-11-20T11:32:07;99420.25;;;4.97;49.46
52511;BME280;63918;51.700;17.998;2022-11-20T11:34:34;99412.77;;;5.09;48.95
52511;BME280;63918;51.700;17.998;2022-11-20T11:37:01;99410.59;;;6.51;45.87
52511;BME280;63918;51.700;17.998;2022-11-20T11:39:31;99401.33;;;7.63;44.60
52511;BME280;63918;51.700;17.998;2022-11-20T11:42:00;99402.95;;;7.44;44.57
52511;BME280;63918;51.700;17.998;2022-11-20T11:44:33;99398.23;;;7.93;42.25
52511;BME280;63918;51.700;17.998;2022-11-20T11:55:40;99381.06;;;5.80;45.33
52511;BME280;63918;51.700;17.998;2022-11-20T11:59:04;99378.95;;;6.43;45.48
52511;BME280;63918;51.700;17.998;2022-11-20T12:01:24;99379.71;;;6.14;45.72
52511;BME280;63918;51.700;17.998;2022-11-20T12:06:44;99368.50;;;6.85;44.82
52511;BME280;63918;51.700;17.998;2022-11-20T12:09:12;99365.42;;;7.05;43.03
52511;BME280;63918;51.700;17.998;2022-11-20T12:16:51;99359.59;;;5.77;46.35
52511;BME280;63918;51.700;17.998;2022-11-20T12:19:19;99357.45;;;6.03;45.54
52511;BME280;63918;51.700;17.998;2022-11-20T12:22:05;99357.45;;;5.40;47.14
52511;BME280;63918;51.700;17.998;2022-11-20T12:25:02;99356.62;;;6.54;44.37
52511;BME280;63918;51.700;17.998;2022-11-20T12:27:56;99362.43;;;6.40;44.60
52511;BME280;63918;51.700;17.998;2022-11-20T12:30:31;99364.91;;;6.94;44.29
52511;BME280;63918;51.700;17.998;2022-11-20T12:39:07;99348.10;;;6.36;44.28
52511;BME280;63918;51.700;17.998;2022-11-20T12:42:01;99350.98;;;6.99;42.08
52511;BME280;63918;51.700;17.998;2022-11-20T12:50:22;99338.59;;;5.76;45.25
52511;BME280;63918;51.700;17.998;2022-11-20T12:54:04;99335.03;;;6.96;42.18
52511;BME280;63918;51.700;17.998;2022-11-20T12:59:09;99328.58;;;5.74;43.91
52511;BME280;63918;51.700;17.998;2022-11-20T13:01:57;99323.13;;;6.53;42.27
52511;BME280;63918;51.700;17.998;2022-11-20T13:07:07;99318.58;;;6.19;42.24
52511;BME280;63918;51.700;17.998;2022-11-20T13:09:42;99310.56;;;6.31;41.97
52511;BME280;63918;51.700;17.998;2022-11-20T13:15:42;99304.73;;;6.00;41.72
52511;BME280;63918;51.700;17.998;2022-11-20T13:17:59;99303.51;;;6.29;41.74
52511;BME280;63918;51.700;17.998;2022-11-20T13:20:27;99299.14;;;5.27;44.34
52511;BME280;63918;51.700;17.998;2022-11-20T13:22:56;99301.80;;;5.79;43.86
52511;BME280;63918;51.700;17.998;2022-11-20T13:25:30;99298.39;;;5.45;44.19
52511;BME280;63918;51.700;17.998;2022-11-20T13:28:03;99301.41;;;5.49;42.92
52511;BME280;63918;51.700;17.998;2022-11-20T13:30:31;99297.73;;;5.27;44.12
52511;BME280;63918;51.700;17.998;2022-11-20T13:33:09;99296.90;;;4.87;44.03
52511;BME280;63918;51.700;17.998;2022-11-20T13:36:07;99291.13;;;5.59;43.88
52511;BME280;63918;51.700;17.998;2022-11-20T13:38:52;99290.16;;;5.66;46.01
52511;BME280;63918;51.700;17.998;2022-11-20T13:41:34;99292.31;;;6.11;45.50
52511;BME280;63918;51.700;17.998;2022-11-20T13:44:10;99286.26;;;5.75;45.75
52511;BME280;63918;51.700;17.998;2022-11-20T13:46:41;99287.52;;;4.93;47.57
52511;BME280;63918;51.700;17.998;2022-11-20T13:49:29;99289.45;;;5.19;47.72
52511;BME280;63918;51.700;17.998;2022-11-20T13:52:27;99292.38;;;5.01;47.52
52511;BME280;63918;51.700;17.998;2022-11-20T13:54:55;99290.15;;;4.65;48.61
52511;BME280;63918;51.700;17.998;2022-11-20T13:58:15;99286.70;;;4.79;48.33
52511;BME280;63918;51.700;17.998;2022-11-20T14:00:51;99285.92;;;4.31;49.71
52511;BME280;63918;51.700;17.998;2022-11-20T14:03:21;99280.87;;;4.86;49.96
52511;BME280;63918;51.700;17.998;2022-11-20T14:05:52;99275.23;;;4.91;50.03
52511;BME280;63918;51.700;17.998;2022-11-20T14:08:27;99272.49;;;4.91;50.30
52511;BME280;63918;51.700;17.998;2022-11-20T14:11:18;99270.27;;;4.70;51.01
52511;BME280;63918;51.700;17.998;2022-11-20T14:13:55;99264.92;;;4.26;51.69
52511;BME280;63918;51.700;17.998;2022-11-20T14:16:24;99262.39;;;4.36;51.80
52511;BME280;63918;51.700;17.998;2022-11-20T14:18:52;99260.79;;;4.80;51.64